Time;durP1;ratioP1;P1;durP2;ratioP2;P2;SDS_P1;SDS_P2;PMS_P1;PMS_P2;Temp;Humidity;BMP_temperature;BMP_pressure;BME280_temperature;BME280_humidity;BME280_pressure;Samples;Min_cycle;Max_cycle;Signal;HPM_P1;HPM_P2
2022/08/20 00:00:16;;;;;;;1.93;1.73;;;19.40;98.70;;;;;;6246572;23;20395;-44
2022/08/20 00:02:49;;;;;;;1.83;1.73;;;19.30;98.80;;;;;;6247115;23;20421;-47
2022/08/20 00:05:19;;;;;;;2.10;1.87;;;19.30;99.00;;;;;;6245520;23;20382;-46
2022/08/20 00:07:44;;;;;;;2.00;1.80;;;19.30;99.10;;;;;;6246368;23;20917;-46
2022/08/20 00:10:10;;;;;;;2.30;2.00;;;19.20;99.10;;;;;;6246038;23;20356;-45
2022/08/20 00:12:37;;;;;;;2.10;1.70;;;19.20;99.20;;;;;;6245605;23;20216;-46
2022/08/20 00:15:04;;;;;;;2.07;1.63;;;19.20;99.30;;;;;;6247240;23;20371;-45
2022/08/20 00:17:36;;;;;;;2.53;1.87;;;19.10;99.30;;;;;;6246308;23;20411;-46
2022/08/20 00:20:06;;;;;;;4.20;1.90;;;19.10;99.50;;;;;;6246495;23;20351;-48
2022/08/20 00:22:32;;;;;;;1.70;1.57;;;19.10;99.60;;;;;;6246072;23;20383;-46
2022/08/20 00:24:58;;;;;;;2.47;2.27;;;19.10;99.70;;;;;;6247465;23;20763;-46
2022/08/20 00:27:23;;;;;;;2.10;1.90;;;19.10;99.70;;;;;;6248033;23;20406;-45
2022/08/20 00:29:49;;;;;;;2.17;1.97;;;19.10;99.70;;;;;;6247447;23;20141;-46
2022/08/20 00:32:14;;;;;;;2.90;1.80;;;19.10;99.70;;;;;;6248782;23;20139;-46
2022/08/20 00:34:41;;;;;;;2.23;1.77;;;19.10;99.50;;;;;;6248764;23;20280;-45
2022/08/20 00:37:07;;;;;;;2.10;1.90;;;19.10;99.50;;;;;;6249122;23;20199;-46
2022/08/20 00:39:34;;;;;;;1.80;1.70;;;19.10;99.50;;;;;;6247709;23;20728;-47
2022/08/20 00:42:00;;;;;;;1.73;1.60;;;19.20;99.50;;;;;;6248039;23;20419;-46
2022/08/20 00:44:26;;;;;;;2.80;1.50;;;19.20;99.50;;;;;;6248260;23;20424;-45
2022/08/20 00:46:53;;;;;;;2.00;1.80;;;19.20;99.50;;;;;;6249129;23;20423;-46
2022/08/20 00:49:26;;;;;;;1.93;1.70;;;19.20;99.60;;;;;;6249159;23;20388;-45
2022/08/20 00:52:12;;;;;;;2.10;1.90;;;19.20;99.60;;;;;;6248237;23;20391;-47
2022/08/20 00:54:41;;;;;;;2.40;2.00;;;19.20;99.60;;;;;;6248466;23;20375;-44
2022/08/20 00:57:11;;;;;;;2.97;2.10;;;19.20;99.60;;;;;;6248024;23;20364;-44
2022/08/20 00:59:38;;;;;;;1.67;1.50;;;19.20;99.60;;;;;;6248234;23;20401;-46
2022/08/20 01:02:06;;;;;;;2.13;1.93;;;19.20;99.60;;;;;;6247678;23;20839;-45
2022/08/20 01:04:33;;;;;;;3.07;2.20;;;19.20;99.80;;;;;;6248450;23;20777;-44
2022/08/20 01:07:00;;;;;;;2.20;1.93;;;19.20;99.90;;;;;;6246361;23;20369;-45
2022/08/20 01:09:25;;;;;;;2.10;1.73;;;19.20;99.90;;;;;;6245700;23;20387;-46
2022/08/20 01:11:52;;;;;;;1.80;1.70;;;19.20;99.90;;;;;;6245752;23;20414;-45
2022/08/20 01:17:03;;;;;;;2.40;2.20;;;19.20;99.90;;;;;;6245561;23;20664;-45
2022/08/20 01:19:37;;;;;;;1.90;1.70;;;19.20;99.90;;;;;;6247534;23;20383;-44
2022/08/20 01:23:25;;;;;;;2.23;2.03;;;19.20;99.90;;;;;;6246362;23;20364;-45
2022/08/20 01:24:52;;;;;;;2.17;1.97;;;19.20;99.90;;;;;;6249105;23;20385;-46
2022/08/20 01:27:18;;;;;;;2.80;2.00;;;19.30;99.80;;;;;;6247312;23;20449;-45
2022/08/20 01:29:44;;;;;;;2.60;2.40;;;19.30;99.80;;;;;;6247432;23;20396;-46
2022/08/20 01:32:10;;;;;;;4.27;2.00;;;19.30;99.70;;;;;;6247860;23;20360;-45
2022/08/20 01:34:36;;;;;;;2.20;1.93;;;19.30;99.70;;;;;;6249372;23;20699;-45
2022/08/20 01:37:02;;;;;;;3.03;2.73;;;19.40;99.70;;;;;;6249426;23;20139;-46
2022/08/20 01:39:33;;;;;;;2.77;2.57;;;19.40;99.70;;;;;;6248167;23;20150;-44
2022/08/20 01:42:18;;;;;;;2.43;1.97;;;19.40;99.60;;;;;;6248909;23;20355;-46
2022/08/20 01:44:45;;;;;;;2.70;2.37;;;19.50;99.50;;;;;;6249152;23;20395;-46
2022/08/20 01:47:25;;;;;;;2.13;1.93;;;19.50;99.40;;;;;;6250157;23;20572;-47
2022/08/20 01:49:54;;;;;;;2.30;2.10;;;19.50;99.40;;;;;;6249983;23;20387;-46
2022/08/20 01:52:40;;;;;;;2.30;2.10;;;19.50;99.40;;;;;;6249079;23;20683;-45
2022/08/20 01:55:06;;;;;;;5.63;3.93;;;19.60;99.40;;;;;;6247235;23;20374;-45
2022/08/20 01:57:33;;;;;;;2.40;2.20;;;19.60;99.30;;;;;;6248901;23;20400;-45
2022/08/20 02:00:00;;;;;;;2.33;1.90;;;19.60;99.30;;;;;;6249366;23;20381;-47
2022/08/20 02:02:26;;;;;;;2.33;2.07;;;19.60;99.30;;;;;;6247911;23;20390;-45
2022/08/20 02:04:52;;;;;;;2.07;1.87;;;19.60;99.30;;;;;;6247441;23;20359;-47
2022/08/20 02:07:20;;;;;;;2.87;2.30;;;19.60;99.30;;;;;;6247952;23;20915;-45
2022/08/20 02:09:48;;;;;;;2.30;2.10;;;19.60;99.40;;;;;;6248320;23;20558;-47
2022/08/20 02:12:14;;;;;;;2.60;2.37;;;19.60;99.50;;;;;;6248883;23;20392;-46
2022/08/20 02:14:47;;;;;;;2.70;2.50;;;19.60;99.50;;;;;;6247247;23;20403;-45
2022/08/20 02:17:14;;;;;;;3.17;2.27;;;19.60;99.50;;;;;;6246025;23;20158;-46
2022/08/20 02:19:44;;;;;;;2.37;2.17;;;19.60;99.50;;;;;;6247182;23;20358;-47
2022/08/20 02:22:20;;;;;;;2.40;2.17;;;19.60;99.60;;;;;;6245939;23;20384;-47
2022/08/20 02:24:46;;;;;;;2.60;2.40;;;19.50;99.60;;;;;;6246318;23;20363;-46
2022/08/20 02:27:12;;;;;;;2.63;2.43;;;19.50;99.60;;;;;;6247281;23;20790;-47
2022/08/20 02:29:38;;;;;;;3.60;2.63;;;19.50;99.70;;;;;;6248248;23;20341;-44
2022/08/20 02:32:05;;;;;;;3.13;2.50;;;19.50;99.80;;;;;;6248803;23;20815;-46
2022/08/20 02:34:33;;;;;;;2.67;2.47;;;19.50;99.90;;;;;;6248685;23;20268;-47
2022/08/20 02:36:59;;;;;;;3.00;2.47;;;19.50;99.90;;;;;;6249215;23;20394;-45
2022/08/20 02:39:25;;;;;;;2.47;2.27;;;19.50;99.90;;;;;;6249490;23;20407;-45
2022/08/20 02:41:51;;;;;;;3.23;2.93;;;19.50;99.90;;;;;;6248376;23;20670;-44
2022/08/20 02:44:19;;;;;;;2.13;1.93;;;19.50;99.80;;;;;;6249684;23;20164;-45
2022/08/20 02:46:46;;;;;;;2.40;2.20;;;19.50;99.80;;;;;;6248480;23;20415;-45
2022/08/20 02:49:12;;;;;;;3.43;2.70;;;19.50;99.70;;;;;;6249081;23;20453;-46
2022/08/20 02:51:37;;;;;;;3.10;2.80;;;19.50;99.70;;;;;;6249401;23;20394;-42
2022/08/20 02:54:03;;;;;;;2.60;2.40;;;19.50;99.80;;;;;;6248490;23;20138;-45
2022/08/20 02:56:28;;;;;;;2.70;2.50;;;19.50;99.90;;;;;;6249339;23;20226;-44
2022/08/20 02:58:54;;;;;;;2.77;2.57;;;19.50;99.90;;;;;;6248545;23;20174;-44
2022/08/20 03:01:20;;;;;;;2.70;2.50;;;19.50;99.90;;;;;;6248611;23;20158;-45
2022/08/20 03:03:46;;;;;;;2.73;2.53;;;19.50;99.80;;;;;;6247301;23;20204;-47
2022/08/20 03:06:12;;;;;;;3.60;2.50;;;19.50;99.80;;;;;;6247458;23;20825;-46
2022/08/20 03:08:38;;;;;;;3.20;3.00;;;19.60;99.80;;;;;;6247252;23;20158;-43
2022/08/20 03:11:04;;;;;;;2.97;2.67;;;19.50;99.70;;;;;;6247147;23;20399;-46
2022/08/20 03:13:29;;;;;;;3.13;2.60;;;19.50;99.80;;;;;;6246748;23;20362;-44
2022/08/20 03:15:57;;;;;;;2.90;2.57;;;19.50;99.90;;;;;;6246159;23;20163;-45
2022/08/20 03:18:24;;;;;;;3.40;2.73;;;19.50;99.90;;;;;;6248219;23;20176;-44
2022/08/20 03:20:51;;;;;;;3.40;3.10;;;19.40;99.90;;;;;;6248368;23;20642;-44
2022/08/20 03:23:18;;;;;;;3.30;3.00;;;19.30;99.90;;;;;;6248159;23;20390;-44
2022/08/20 03:25:45;;;;;;;3.33;3.03;;;19.10;99.90;;;;;;6247827;23;20396;-43
2022/08/20 03:28:10;;;;;;;3.50;3.20;;;19.00;99.90;;;;;;6246256;23;20435;-42
2022/08/20 03:30:37;;;;;;;3.80;3.50;;;18.90;99.90;;;;;;6247596;23;20391;-43
2022/08/20 03:33:03;;;;;;;4.10;3.80;;;18.90;99.90;;;;;;6246285;23;20541;-44
2022/08/20 03:35:29;;;;;;;3.80;3.50;;;18.80;99.90;;;;;;6246092;23;20476;-43
2022/08/20 03:37:56;;;;;;;4.20;3.73;;;18.80;99.90;;;;;;6247003;23;20272;-42
2022/08/20 03:40:29;;;;;;;4.27;3.87;;;18.80;99.90;;;;;;6247760;22;20352;-44
2022/08/20 03:42:55;;;;;;;4.57;3.57;;;18.70;99.90;;;;;;6247864;23;20384;-44
2022/08/20 03:45:22;;;;;;;4.60;4.20;;;18.70;99.90;;;;;;6247573;23;20397;-42
2022/08/20 03:47:48;;;;;;;4.30;3.83;;;18.70;99.90;;;;;;6248585;23;20387;-43
2022/08/20 03:50:14;;;;;;;4.47;4.07;;;18.70;99.90;;;;;;6248125;23;20356;-43
2022/08/20 03:52:40;;;;;;;4.33;3.90;;;18.60;99.90;;;;;;6247032;23;20403;-43
2022/08/20 03:55:07;;;;;;;4.23;3.93;;;18.60;99.90;;;;;;6248296;23;20419;-42
2022/08/20 03:57:33;;;;;;;4.10;3.80;;;18.60;99.90;;;;;;6247565;23;20188;-44
2022/08/20 03:59:59;;;;;;;4.00;3.60;;;18.60;99.90;;;;;;6250442;23;20358;-45
2022/08/20 04:02:25;;;;;;;4.43;4.03;;;18.60;99.90;;;;;;6250222;23;20363;-43
2022/08/20 04:04:50;;;;;;;4.53;4.23;;;18.60;99.90;;;;;;6249077;23;20501;-44
2022/08/20 04:07:24;;;;;;;4.20;3.90;;;18.60;99.90;;;;;;6248107;23;20388;-43
2022/08/20 04:09:51;;;;;;;4.20;3.90;;;18.60;99.90;;;;;;6249222;23;20147;-46
2022/08/20 04:12:17;;;;;;;4.57;4.20;;;18.50;99.90;;;;;;6249749;23;20352;-43
2022/08/20 04:14:43;;;;;;;5.00;4.60;;;18.50;99.90;;;;;;6250144;23;20525;-45
2022/08/20 04:17:11;;;;;;;6.23;4.33;;;18.50;99.90;;;;;;6249853;23;20356;-42
2022/08/20 04:19:37;;;;;;;5.00;4.50;;;18.50;99.90;;;;;;6249424;23;20152;-42
2022/08/20 04:22:04;;;;;;;4.60;4.30;;;18.50;99.90;;;;;;6250405;23;20350;-43
2022/08/20 04:24:30;;;;;;;4.47;4.07;;;18.50;99.90;;;;;;6250044;23;20433;-43
2022/08/20 04:26:56;;;;;;;4.80;4.43;;;18.50;99.90;;;;;;6250208;23;20360;-43
2022/08/20 04:29:23;;;;;;;4.67;4.33;;;18.50;99.90;;;;;;6249307;23;20796;-44
2022/08/20 04:31:49;;;;;;;5.03;4.53;;;18.50;99.90;;;;;;6250046;23;20363;-43
2022/08/20 04:34:17;;;;;;;5.33;4.93;;;18.60;99.90;;;;;;6249359;23;20753;-44
2022/08/20 04:36:45;;;;;;;4.83;4.40;;;18.60;99.90;;;;;;6248111;23;20506;-44
2022/08/20 04:39:11;;;;;;;4.73;4.23;;;18.60;99.90;;;;;;6248950;23;20850;-45
2022/08/20 04:41:37;;;;;;;5.10;4.60;;;18.60;99.90;;;;;;6249760;23;20362;-44
2022/08/20 04:44:02;;;;;;;5.03;4.63;;;18.60;99.90;;;;;;6249219;23;20134;-43
2022/08/20 04:46:29;;;;;;;4.53;4.23;;;18.60;99.90;;;;;;6248730;23;20426;-44
2022/08/20 04:48:56;;;;;;;5.07;4.67;;;18.60;99.90;;;;;;6249276;23;20222;-43
2022/08/20 04:51:21;;;;;;;5.03;4.63;;;18.60;99.90;;;;;;6249643;23;20400;-47
2022/08/20 04:53:47;;;;;;;7.27;4.37;;;18.60;99.90;;;;;;6250427;23;20427;-43
2022/08/20 04:56:13;;;;;;;4.07;3.67;;;18.60;99.90;;;;;;6249594;23;20150;-43
2022/08/20 04:58:39;;;;;;;5.10;4.60;;;18.60;99.90;;;;;;6248694;23;20169;-44
2022/08/20 05:01:09;;;;;;;5.07;4.67;;;18.70;99.90;;;;;;6249074;23;20524;-43
2022/08/20 05:03:36;;;;;;;5.20;4.80;;;18.70;99.90;;;;;;6247513;23;20422;-48
2022/08/20 05:06:04;;;;;;;4.23;3.93;;;18.70;99.90;;;;;;6245909;23;20584;-45
2022/08/20 05:08:30;;;;;;;4.83;4.43;;;18.80;99.90;;;;;;6244620;23;20786;-43
2022/08/20 05:10:57;;;;;;;4.60;4.20;;;18.80;99.90;;;;;;6244018;23;20475;-44
2022/08/20 05:13:23;;;;;;;4.33;4.03;;;18.80;99.90;;;;;;6244088;23;20365;-43
2022/08/20 05:15:49;;;;;;;4.97;4.53;;;18.80;99.90;;;;;;6245943;23;20380;-42
2022/08/20 05:18:18;;;;;;;4.70;4.30;;;18.80;99.90;;;;;;6247613;22;20413;-43
2022/08/20 05:20:45;;;;;;;4.70;4.40;;;18.80;99.90;;;;;;6248176;23;20660;-44
2022/08/20 05:23:12;;;;;;;5.27;4.77;;;18.90;99.90;;;;;;6248867;23;20452;-44
2022/08/20 05:25:40;;;;;;;5.07;4.67;;;18.80;99.90;;;;;;6249810;23;20652;-45
2022/08/20 05:28:08;;;;;;;4.60;4.20;;;18.80;99.90;;;;;;6248842;23;20377;-43
2022/08/20 05:30:36;;;;;;;4.60;4.20;;;18.80;99.90;;;;;;6249372;23;20870;-45
2022/08/20 05:33:03;;;;;;;5.47;5.07;;;18.80;99.90;;;;;;6249166;23;20358;-46
2022/08/20 05:35:30;;;;;;;5.50;5.00;;;18.80;99.90;;;;;;6246899;23;20446;-45
2022/08/20 05:37:56;;;;;;;4.47;4.10;;;18.80;99.90;;;;;;6246363;23;20950;-43
2022/08/20 05:40:22;;;;;;;5.63;5.13;;;18.80;99.90;;;;;;6246429;23;20417;-42
2022/08/20 05:42:48;;;;;;;5.17;4.77;;;18.80;99.90;;;;;;6246560;23;20359;-45
2022/08/20 05:45:15;;;;;;;4.70;4.30;;;18.80;99.90;;;;;;6246522;23;20476;-45
2022/08/20 05:47:42;;;;;;;5.37;4.97;;;18.80;99.90;;;;;;6245023;23;20364;-44
2022/08/20 05:50:08;;;;;;;5.80;5.23;;;18.80;99.90;;;;;;6244725;23;20798;-44
2022/08/20 05:52:34;;;;;;;5.07;4.67;;;18.90;99.90;;;;;;6246851;23;20357;-43
2022/08/20 05:54:59;;;;;;;4.83;4.40;;;18.90;99.90;;;;;;6245458;23;20387;-43
2022/08/20 05:57:25;;;;;;;4.83;4.43;;;19.00;99.90;;;;;;6245678;23;20169;-42
2022/08/20 05:59:51;;;;;;;5.97;5.53;;;19.10;99.90;;;;;;6245611;23;20316;-44
2022/08/20 06:05:01;;;;;;;5.10;4.70;;;19.20;99.90;;;;;;6246472;23;20387;-43
2022/08/20 06:07:27;;;;;;;5.13;4.63;;;19.30;99.90;;;;;;6246540;23;20362;-44
2022/08/20 06:09:53;;;;;;;5.13;4.63;;;19.20;99.90;;;;;;6243846;23;20540;-46
2022/08/20 06:12:18;;;;;;;5.37;4.80;;;19.30;99.90;;;;;;6243475;23;20203;-42
2022/08/20 06:14:46;;;;;;;5.20;4.80;;;19.20;99.90;;;;;;6246363;23;20207;-42
2022/08/20 06:17:16;;;;;;;5.60;4.97;;;19.40;99.90;;;;;;6246722;23;20141;-43
2022/08/20 06:19:43;;;;;;;6.27;5.37;;;19.50;99.90;;;;;;6246806;22;20419;-43
2022/08/20 06:22:08;;;;;;;5.17;4.70;;;19.50;99.90;;;;;;6246827;23;20476;-44
2022/08/20 06:24:34;;;;;;;5.43;4.93;;;19.60;99.90;;;;;;6245705;23;20347;-43
2022/08/20 06:27:02;;;;;;;5.23;4.73;;;19.60;99.90;;;;;;6244953;23;20158;-44
2022/08/20 06:29:28;;;;;;;4.37;3.97;;;19.70;99.90;;;;;;6245870;22;20142;-45
2022/08/20 06:31:54;;;;;;;5.60;4.97;;;19.70;99.90;;;;;;6246289;23;20408;-43
2022/08/20 06:34:20;;;;;;;5.80;5.10;;;19.60;99.90;;;;;;6246073;23;20855;-43
2022/08/20 06:36:46;;;;;;;5.63;5.00;;;19.60;99.90;;;;;;6246044;23;20393;-42
2022/08/20 06:39:15;;;;;;;5.97;5.40;;;19.60;99.90;;;;;;6247232;23;20403;-43
2022/08/20 06:41:41;;;;;;;5.17;4.77;;;19.50;99.90;;;;;;6248218;23;20532;-44
2022/08/20 06:44:07;;;;;;;6.83;5.47;;;19.50;99.90;;;;;;6248245;23;20360;-43
2022/08/20 06:46:34;;;;;;;4.90;4.27;;;19.50;99.90;;;;;;6244251;23;20416;-43
2022/08/20 06:49:02;;;;;;;6.07;5.43;;;19.70;99.90;;;;;;6246273;23;20141;-45
2022/08/20 06:51:28;;;;;;;5.33;4.83;;;19.70;99.90;;;;;;6245526;23;20657;-44
2022/08/20 06:53:54;;;;;;;5.00;4.50;;;19.60;99.90;;;;;;6246725;23;20359;-45
2022/08/20 06:56:20;;;;;;;4.73;4.33;;;19.70;99.90;;;;;;6247160;23;20498;-44
2022/08/20 06:58:45;;;;;;;5.00;4.60;;;19.70;99.90;;;;;;6246035;23;20413;-42
2022/08/20 07:01:12;;;;;;;4.87;4.43;;;19.80;99.90;;;;;;6245571;23;20393;-46
2022/08/20 07:03:39;;;;;;;5.90;5.33;;;19.80;99.90;;;;;;6246426;23;20130;-45
2022/08/20 07:06:06;;;;;;;6.03;5.33;;;19.90;99.90;;;;;;6245530;23;20397;-45
2022/08/20 07:08:32;;;;;;;5.17;4.77;;;19.90;99.90;;;;;;6247520;23;20404;-44
2022/08/20 07:10:58;;;;;;;6.30;4.47;;;20.00;99.90;;;;;;6247115;23;20449;-45
2022/08/20 07:13:24;;;;;;;4.60;4.20;;;19.90;99.90;;;;;;6246906;23;20451;-45
2022/08/20 07:15:49;;;;;;;5.57;5.07;;;20.00;99.90;;;;;;6245621;23;20360;-44
2022/08/20 07:18:16;;;;;;;6.33;5.03;;;20.10;99.90;;;;;;6245440;23;20187;-44
2022/08/20 07:20:42;;;;;;;5.57;5.07;;;20.30;99.90;;;;;;6246478;23;20458;-43
2022/08/20 07:23:10;;;;;;;4.27;3.87;;;20.40;99.90;;;;;;6245890;23;20386;-45
2022/08/20 07:25:38;;;;;;;5.13;4.73;;;20.40;99.90;;;;;;6246544;23;20353;-46
2022/08/20 07:28:06;;;;;;;5.37;4.90;;;20.60;99.70;;;;;;6246827;23;20417;-45
2022/08/20 07:33:17;;;;;;;5.90;5.30;;;20.70;99.40;;;;;;6247392;23;20823;-43
2022/08/20 07:35:42;;;;;;;5.57;5.07;;;20.60;99.40;;;;;;6245452;23;20370;-43
2022/08/20 07:38:17;;;;;;;5.87;5.37;;;20.70;99.40;;;;;;6247974;23;20432;-43
2022/08/20 07:40:43;;;;;;;5.00;4.60;;;20.70;99.30;;;;;;6247986;23;20139;-46
2022/08/20 07:43:09;;;;;;;5.63;5.13;;;20.70;99.20;;;;;;6246271;23;20641;-45
2022/08/20 07:45:36;;;;;;;4.40;4.00;;;20.70;99.40;;;;;;6244119;23;20798;-46
2022/08/20 07:48:11;;;;;;;4.90;4.47;;;20.60;99.30;;;;;;6246377;23;20415;-44
2022/08/20 07:50:37;;;;;;;5.20;4.70;;;20.70;99.40;;;;;;6246097;23;20377;-44
2022/08/20 07:53:03;;;;;;;5.43;4.93;;;20.70;99.40;;;;;;6245840;23;20502;-44
2022/08/20 07:55:29;;;;;;;5.40;4.90;;;20.70;99.20;;;;;;6247174;23;20407;-46
2022/08/20 07:57:57;;;;;;;5.83;5.33;;;20.70;99.00;;;;;;6244761;23;20406;-45
2022/08/20 08:00:24;;;;;;;5.07;4.67;;;20.60;99.20;;;;;;6246013;23;20622;-44
2022/08/20 08:02:50;;;;;;;5.00;4.60;;;20.70;99.50;;;;;;6244466;23;20352;-44
2022/08/20 08:05:17;;;;;;;5.67;5.07;;;20.80;99.50;;;;;;6245269;23;20360;-45
2022/08/20 08:07:44;;;;;;;4.40;4.10;;;20.80;99.10;;;;;;6246689;23;20358;-43
2022/08/20 08:10:12;;;;;;;5.87;4.53;;;20.90;98.90;;;;;;6246076;23;20363;-45
2022/08/20 08:12:39;;;;;;;5.77;5.27;;;20.90;99.00;;;;;;6246724;23;20372;-45
2022/08/20 08:15:09;;;;;;;4.73;4.33;;;21.00;98.70;;;;;;6220098;23;20413;-44
2022/08/20 08:17:36;;;;;;;4.63;4.23;;;21.10;98.50;;;;;;6247561;23;20460;-45
2022/08/20 08:20:04;;;;;;;4.33;3.97;;;21.30;98.40;;;;;;6245340;23;20372;-45
2022/08/20 08:22:30;;;;;;;5.37;4.90;;;21.50;98.30;;;;;;6246867;23;20388;-45
2022/08/20 08:25:00;;;;;;;5.13;4.73;;;21.50;97.20;;;;;;6246072;23;20417;-45
2022/08/20 08:27:32;;;;;;;5.57;5.07;;;21.70;96.90;;;;;;6245379;23;20804;-44
2022/08/20 08:29:59;;;;;;;4.80;4.37;;;21.70;96.40;;;;;;6246591;23;20745;-43
2022/08/20 08:32:26;;;;;;;4.13;3.80;;;21.50;96.50;;;;;;6245851;23;20391;-45
2022/08/20 08:34:51;;;;;;;4.13;3.83;;;21.40;96.70;;;;;;6243679;23;20435;-46
2022/08/20 08:37:17;;;;;;;5.90;4.53;;;21.60;96.80;;;;;;6243493;23;20480;-44
2022/08/20 08:39:43;;;;;;;3.90;3.60;;;21.90;96.40;;;;;;6243324;23;20389;-43
2022/08/20 08:42:39;;;;;;;5.37;4.50;;;22.20;95.60;;;;;;6242715;23;20160;-44
2022/08/20 08:45:07;;;;;;;4.73;4.33;;;22.50;95.10;;;;;;6244159;23;20133;-45
2022/08/20 08:47:35;;;;;;;5.07;4.57;;;22.60;94.90;;;;;;6249070;23;20800;-44
2022/08/20 08:50:02;;;;;;;4.90;3.80;;;22.90;94.30;;;;;;6248772;23;20370;-43
2022/08/20 08:52:30;;;;;;;4.93;4.50;;;23.10;93.80;;;;;;6247884;23;20386;-44
2022/08/20 08:54:58;;;;;;;4.40;4.03;;;22.90;93.40;;;;;;6245219;23;20505;-45
2022/08/20 08:57:24;;;;;;;5.53;5.03;;;22.90;93.80;;;;;;6246529;23;20385;-44
2022/08/20 09:00:13;;;;;;;4.57;4.20;;;23.00;93.40;;;;;;6245153;23;20391;-44
2022/08/20 09:02:41;;;;;;;4.30;4.00;;;22.90;93.70;;;;;;6246936;22;20431;-46
2022/08/20 09:05:15;;;;;;;3.63;3.43;;;23.00;93.80;;;;;;6245908;23;20409;-44
2022/08/20 09:07:44;;;;;;;4.43;4.13;;;23.20;93.30;;;;;;6244557;23;20369;-44
2022/08/20 09:10:10;;;;;;;4.30;3.93;;;23.70;93.20;;;;;;6245461;23;20364;-45
2022/08/20 09:12:35;;;;;;;3.50;3.20;;;24.20;92.20;;;;;;6245578;23;20372;-44
2022/08/20 09:15:01;;;;;;;4.67;4.27;;;23.90;91.20;;;;;;6245117;23;20477;-44
2022/08/20 09:17:27;;;;;;;3.40;3.10;;;24.00;91.80;;;;;;6243048;23;20166;-45
2022/08/20 09:19:52;;;;;;;3.30;3.00;;;23.90;91.20;;;;;;6244709;23;20133;-45
2022/08/20 09:22:20;;;;;;;3.90;3.60;;;24.30;91.00;;;;;;6244502;23;20424;-46
2022/08/20 09:24:46;;;;;;;3.33;2.90;;;24.40;90.60;;;;;;6243959;23;20359;-44
2022/08/20 09:27:12;;;;;;;3.30;3.07;;;24.50;90.40;;;;;;6244029;23;20386;-44
2022/08/20 09:29:38;;;;;;;3.37;3.17;;;24.90;89.00;;;;;;6244056;23;20199;-45
2022/08/20 09:32:18;;;;;;;3.50;3.20;;;25.20;87.70;;;;;;6247990;23;20418;-43
2022/08/20 09:34:46;;;;;;;3.70;3.30;;;25.20;87.10;;;;;;6247509;23;20486;-44
2022/08/20 09:37:13;;;;;;;2.63;2.43;;;25.30;86.40;;;;;;6248887;23;20380;-44
2022/08/20 09:39:40;;;;;;;2.83;2.63;;;25.30;85.20;;;;;;6246536;23;20406;-44
2022/08/20 09:42:17;;;;;;;3.10;2.90;;;25.10;85.80;;;;;;6246943;22;20388;-45
2022/08/20 09:44:43;;;;;;;3.50;2.60;;;24.70;86.40;;;;;;6246005;22;20784;-49
2022/08/20 09:47:09;;;;;;;3.90;3.00;;;24.60;87.70;;;;;;6245160;23;20421;-43
2022/08/20 09:49:36;;;;;;;2.17;2.07;;;24.30;88.50;;;;;;6246413;23;20360;-43
2022/08/20 09:52:03;;;;;;;2.47;2.27;;;24.30;87.40;;;;;;6245298;23;20168;-43
2022/08/20 09:54:32;;;;;;;3.27;2.97;;;24.00;88.20;;;;;;6247062;23;20357;-43
2022/08/20 09:56:59;;;;;;;2.80;2.47;;;24.30;88.10;;;;;;6248076;23;20491;-44
2022/08/20 09:59:25;;;;;;;2.73;2.43;;;24.30;87.70;;;;;;6248581;23;20854;-45
2022/08/20 10:01:50;;;;;;;2.70;2.50;;;24.10;88.30;;;;;;6246563;23;20499;-44
2022/08/20 10:04:16;;;;;;;2.73;2.53;;;24.30;89.20;;;;;;6248668;23;20359;-44
2022/08/20 10:06:42;;;;;;;2.90;2.70;;;24.30;89.60;;;;;;6247830;23;20504;-46
2022/08/20 10:09:07;;;;;;;2.73;2.53;;;24.50;89.00;;;;;;6248236;23;20140;-44
2022/08/20 10:11:33;;;;;;;2.60;2.40;;;24.60;88.90;;;;;;6246198;23;20421;-45
2022/08/20 10:13:58;;;;;;;3.10;2.53;;;24.20;88.70;;;;;;6248050;23;20134;-44
2022/08/20 10:16:24;;;;;;;8.27;2.93;;;24.00;89.20;;;;;;6246752;23;20657;-46
2022/08/20 10:18:50;;;;;;;4.73;2.80;;;24.00;89.50;;;;;;6245950;23;20164;-45
2022/08/20 10:21:16;;;;;;;2.67;2.47;;;23.80;90.00;;;;;;6245561;23;20162;-44
2022/08/20 10:23:42;;;;;;;2.63;2.43;;;23.50;90.50;;;;;;6245829;23;20504;-45
2022/08/20 10:26:11;;;;;;;2.07;1.87;;;23.30;91.20;;;;;;6246869;23;20395;-44
2022/08/20 10:28:37;;;;;;;2.30;2.10;;;23.10;92.00;;;;;;6247001;22;20679;-44
2022/08/20 10:31:05;;;;;;;2.30;1.30;;;22.90;92.80;;;;;;6246208;23;20390;-45
2022/08/20 10:33:31;;;;;;;1.37;0.93;;;22.80;93.10;;;;;;6246809;23;20348;-44
2022/08/20 10:35:57;;;;;;;1.90;1.13;;;22.80;92.90;;;;;;6246220;23;20485;-44
2022/08/20 10:38:23;;;;;;;1.20;0.90;;;22.70;92.80;;;;;;6247162;23;20227;-44
2022/08/20 10:40:48;;;;;;;1.83;1.33;;;22.60;93.10;;;;;;6247429;23;20386;-44
2022/08/20 10:43:14;;;;;;;1.73;1.20;;;22.60;93.60;;;;;;6245581;23;20143;-45
2022/08/20 10:45:39;;;;;;;1.40;1.07;;;22.90;93.40;;;;;;6244819;23;20151;-46
2022/08/20 10:48:06;;;;;;;2.40;0.87;;;23.50;93.10;;;;;;6245771;23;20507;-44
2022/08/20 10:50:32;;;;;;;1.20;1.00;;;24.10;92.20;;;;;;6246185;23;20571;-43
2022/08/20 10:52:58;;;;;;;1.67;0.80;;;24.70;90.80;;;;;;6245608;23;20374;-45
2022/08/20 10:55:23;;;;;;;1.50;0.90;;;25.00;88.90;;;;;;6245101;23;20156;-44
2022/08/20 10:57:49;;;;;;;3.30;0.87;;;25.10;87.80;;;;;;6244702;23;20182;-45
2022/08/20 11:00:16;;;;;;;1.40;0.70;;;25.10;88.10;;;;;;6245785;23;20162;-44
2022/08/20 11:02:41;;;;;;;4.30;2.20;;;25.30;87.80;;;;;;6246718;23;20533;-43
2022/08/20 11:05:07;;;;;;;1.40;1.07;;;25.80;87.20;;;;;;6246177;23;20372;-44
2022/08/20 11:07:36;;;;;;;2.07;1.10;;;26.30;86.30;;;;;;6245377;23;20295;-43
2022/08/20 11:10:04;;;;;;;2.50;1.40;;;26.70;83.60;;;;;;6246738;23;20370;-49
2022/08/20 11:12:29;;;;;;;1.40;1.30;;;26.40;83.50;;;;;;6245832;23;20400;-44
2022/08/20 11:14:55;;;;;;;1.60;1.20;;;25.70;85.20;;;;;;6245322;23;20693;-45
2022/08/20 11:17:30;;;;;;;1.30;1.20;;;25.40;85.90;;;;;;6245468;23;20160;-44
2022/08/20 11:19:56;;;;;;;1.20;1.00;;;24.90;87.20;;;;;;6242969;23;20382;-44
2022/08/20 11:22:22;;;;;;;1.97;1.43;;;24.50;88.70;;;;;;6243262;23;20687;-44
2022/08/20 11:24:48;;;;;;;2.10;1.37;;;23.70;89.80;;;;;;6242960;23;20372;-44
2022/08/20 11:27:35;;;;;;;1.20;0.80;;;23.20;90.80;;;;;;6242918;23;20490;-44
2022/08/20 11:30:02;;;;;;;3.53;1.00;;;22.90;91.80;;;;;;6243101;22;20146;-43
2022/08/20 11:32:28;;;;;;;1.00;0.80;;;22.80;92.00;;;;;;6240134;23;20704;-45
2022/08/20 11:34:54;;;;;;;1.53;1.00;;;22.90;92.20;;;;;;6241762;23;20513;-44
2022/08/20 11:37:21;;;;;;;1.30;1.00;;;22.60;92.50;;;;;;6241533;23;20523;-44
2022/08/20 11:39:47;;;;;;;1.63;1.27;;;22.40;92.80;;;;;;6242478;23;20455;-43
2022/08/20 11:42:13;;;;;;;1.70;1.10;;;22.20;93.40;;;;;;6243799;23;20419;-45
2022/08/20 11:44:39;;;;;;;1.77;1.37;;;22.10;93.80;;;;;;6244738;23;20136;-45
2022/08/20 11:47:05;;;;;;;1.40;1.10;;;22.30;93.70;;;;;;6220614;23;20399;-44
2022/08/20 11:49:33;;;;;;;1.50;1.30;;;22.20;93.80;;;;;;6218796;23;20480;-45
2022/08/20 11:51:59;;;;;;;1.77;1.30;;;22.20;94.00;;;;;;6220820;23;20395;-46
2022/08/20 11:54:27;;;;;;;2.30;1.33;;;22.20;94.20;;;;;;6246184;23;20357;-44
2022/08/20 11:56:55;;;;;;;1.93;1.33;;;22.10;94.30;;;;;;6244413;23;20235;-45
2022/08/20 11:59:20;;;;;;;1.23;1.13;;;22.10;94.60;;;;;;6244302;23;20975;-45
2022/08/20 12:01:46;;;;;;;1.30;1.20;;;22.20;94.70;;;;;;6246197;23;20387;-43
2022/08/20 12:04:12;;;;;;;1.83;1.47;;;22.30;94.60;;;;;;6245777;23;20132;-42
2022/08/20 12:06:38;;;;;;;1.30;1.20;;;22.30;94.70;;;;;;6245335;23;20160;-46
2022/08/20 12:09:03;;;;;;;1.40;1.00;;;22.40;94.80;;;;;;6245853;23;20229;-42
2022/08/20 12:11:29;;;;;;;1.43;1.10;;;22.50;94.70;;;;;;6245056;23;20489;-42
2022/08/20 12:13:55;;;;;;;1.40;0.80;;;22.50;94.70;;;;;;6244439;23;20215;-43
2022/08/20 12:16:21;;;;;;;1.83;1.10;;;22.60;94.70;;;;;;6244712;23;20186;-44
2022/08/20 12:18:47;;;;;;;1.60;1.33;;;22.60;94.50;;;;;;6245811;23;20920;-44
2022/08/20 12:21:13;;;;;;;1.40;0.87;;;22.70;94.60;;;;;;6248243;23;20150;-47
2022/08/20 12:23:40;;;;;;;1.07;0.80;;;22.60;94.10;;;;;;6247731;23;20358;-46
2022/08/20 12:26:06;;;;;;;1.30;1.07;;;22.90;94.00;;;;;;6242739;23;20683;-44
2022/08/20 12:28:32;;;;;;;1.20;0.93;;;23.10;93.40;;;;;;6247731;23;20362;-45
2022/08/20 12:30:58;;;;;;;1.83;0.80;;;23.40;92.60;;;;;;6245452;23;20555;-47
2022/08/20 12:33:24;;;;;;;1.30;1.00;;;23.40;92.50;;;;;;6245912;23;20553;-45
2022/08/20 12:35:50;;;;;;;1.57;0.90;;;23.50;92.40;;;;;;6246351;23;20296;-44
2022/08/20 12:38:17;;;;;;;1.47;1.07;;;23.50;92.20;;;;;;6245905;23;20682;-45
2022/08/20 12:40:43;;;;;;;1.60;1.10;;;23.20;92.50;;;;;;6219011;23;20395;-46
2022/08/20 12:43:08;;;;;;;1.47;1.13;;;23.10;93.00;;;;;;6245589;23;20441;-44
2022/08/20 12:45:35;;;;;;;1.37;1.07;;;22.80;92.80;;;;;;6245729;23;20151;-46
2022/08/20 12:48:05;;;;;;;1.30;1.20;;;22.60;93.10;;;;;;6245527;23;20459;-44
2022/08/20 12:50:31;;;;;;;2.10;1.40;;;22.50;93.80;;;;;;6245682;23;20413;-43
2022/08/20 12:52:57;;;;;;;4.27;2.03;;;22.30;95.60;;;;;;6248675;23;20649;-44
2022/08/20 12:55:23;;;;;;;1.63;1.53;;;22.30;97.40;;;;;;6250940;23;20355;-45